createdAt,value
2022-10-12T00:01:37.020Z,60.8
2022-10-12T00:04:25.769Z,60.7
2022-10-12T00:07:13.491Z,60.3
2022-10-12T00:10:01.383Z,61.1
2022-10-12T00:12:50.890Z,61.8
2022-10-12T00:15:38.434Z,61.1
2022-10-12T00:18:26.887Z,61.1
2022-10-12T00:21:14.492Z,61.3
2022-10-12T00:24:02.863Z,61
2022-10-12T00:26:51.208Z,61
2022-10-12T00:29:38.775Z,61
2022-10-12T00:32:26.352Z,61.1
2022-10-12T00:35:13.818Z,61
2022-10-12T00:38:01.443Z,60.8
2022-10-12T00:40:49.234Z,61.3
2022-10-12T00:43:36.687Z,61.2
2022-10-12T00:46:26.619Z,61.1
2022-10-12T00:49:18.942Z,61.2
2022-10-12T00:52:10.199Z,61.7
2022-10-12T00:55:00.345Z,61.8
2022-10-12T00:57:49.318Z,61.2
2022-10-12T01:00:40.183Z,61.4
2022-10-12T01:03:28.678Z,61.8
2022-10-12T01:06:17.819Z,61.7
2022-10-12T01:09:05.728Z,61.7
2022-10-12T01:11:53.344Z,61.6
2022-10-12T01:14:42.627Z,61.5
2022-10-12T01:17:30.343Z,61.8
2022-10-12T01:20:30.575Z,63
2022-10-12T01:23:31.323Z,61.9
2022-10-12T01:27:13.891Z,62.5
2022-10-12T01:30:14.683Z,61.8
2022-10-12T01:33:06.911Z,61.1
2022-10-12T01:36:02.742Z,61.3
2022-10-12T01:38:57.479Z,61.6
2022-10-12T01:41:52.532Z,61.5
2022-10-12T01:44:45.468Z,61.5
2022-10-12T01:47:33.403Z,61.4
2022-10-12T01:50:23.362Z,61.3
2022-10-12T01:53:35.580Z,63.2
2022-10-12T01:56:30.739Z,62.7
2022-10-12T01:59:27.347Z,62.4
2022-10-12T02:02:27.210Z,62.3
2022-10-12T02:05:24.200Z,62.7
2022-10-12T02:08:20.619Z,62.7
2022-10-12T02:11:11.678Z,63
2022-10-12T02:14:01.486Z,62.7
2022-10-12T02:16:55.410Z,62.7
2022-10-12T02:19:46.371Z,62.6
2022-10-12T02:22:38.423Z,63.3
2022-10-12T02:25:28.870Z,63.2
2022-10-12T02:28:18.861Z,64.2
2022-10-12T02:31:10.218Z,63.2
2022-10-12T02:34:08.483Z,63
2022-10-12T02:36:59.479Z,64.9
2022-10-12T02:39:52.447Z,64.9
2022-10-12T02:43:08.911Z,63.3
2022-10-12T02:46:05.040Z,64.8
2022-10-12T02:48:55.337Z,64.7
2022-10-12T02:51:44.910Z,63.7
2022-10-12T02:54:33.450Z,63
2022-10-12T02:57:23.084Z,63.2
2022-10-12T03:00:11.189Z,63.4
2022-10-12T03:02:59.762Z,63.4
2022-10-12T03:05:47.515Z,64.3
2022-10-12T03:08:35.163Z,63.8
2022-10-12T03:11:23.376Z,63.7
2022-10-12T03:14:10.903Z,65.1
2022-10-12T03:16:59.711Z,65.5
2022-10-12T03:19:47.325Z,64.1
2022-10-12T03:22:34.918Z,64.1
2022-10-12T03:25:22.407Z,64
2022-10-12T03:28:10.018Z,65.1
2022-10-12T03:30:57.536Z,64.8
2022-10-12T03:33:45.836Z,64.3
2022-10-12T03:36:33.575Z,64.1
2022-10-12T03:39:21.519Z,64.1
2022-10-12T03:42:09.414Z,63.9
2022-10-12T03:44:57.230Z,63.8
2022-10-12T03:47:44.852Z,64.4
2022-10-12T03:50:33.123Z,64.2
2022-10-12T03:53:21.667Z,65.9
2022-10-12T03:56:09.565Z,64.3
2022-10-12T03:58:57.132Z,64.1
2022-10-12T04:01:44.967Z,65
2022-10-12T04:04:32.939Z,64.4
2022-10-12T04:07:20.847Z,64.8
2022-10-12T04:10:08.430Z,64.7
2022-10-12T04:12:56.211Z,64.8
2022-10-12T04:15:43.839Z,65.7
2022-10-12T04:18:31.839Z,66.2
2022-10-12T04:21:20.942Z,66.2
2022-10-12T04:24:10.304Z,67
2022-10-12T04:26:57.995Z,66.1
2022-10-12T04:29:45.643Z,67.7
2022-10-12T04:32:33.325Z,67
2022-10-12T04:35:20.854Z,67.5
2022-10-12T04:38:08.658Z,66.4
2022-10-12T04:40:57.659Z,66.4
2022-10-12T04:43:45.381Z,66.2
2022-10-12T04:46:33.351Z,66.5
2022-10-12T04:49:20.882Z,67
2022-10-12T04:52:08.473Z,66.5
2022-10-12T04:54:56.175Z,65.6
2022-10-12T04:57:44.226Z,65.2
2022-10-12T05:00:32.223Z,65.3
2022-10-12T05:03:20.703Z,65.5
2022-10-12T05:06:08.583Z,65
2022-10-12T05:08:56.824Z,65.8
2022-10-12T05:11:44.403Z,65.2
2022-10-12T05:14:35.785Z,64.7
2022-10-12T05:17:23.792Z,66
2022-10-12T05:20:11.442Z,65.1
2022-10-12T05:22:59.548Z,66.6
2022-10-12T05:25:47.218Z,66.5
2022-10-12T05:28:39.822Z,66.6
2022-10-12T05:31:28.732Z,66.2
2022-10-12T05:34:16.423Z,66.4
2022-10-12T05:37:03.945Z,66.9
2022-10-12T05:39:51.435Z,67.7
2022-10-12T05:42:39.685Z,67.1
2022-10-12T05:45:29.195Z,66.7
2022-10-12T05:48:17.598Z,66.4
2022-10-12T05:51:05.405Z,66.8
2022-10-12T05:53:52.952Z,66.8
2022-10-12T05:56:40.436Z,67.1
2022-10-12T05:59:28.285Z,66.9
2022-10-12T06:02:16.007Z,66.7
2022-10-12T06:05:03.729Z,68
2022-10-12T06:07:52.119Z,68.8
2022-10-12T06:10:39.844Z,69
2022-10-12T06:13:32.127Z,68.3
2022-10-12T06:16:20.213Z,68.2
2022-10-12T06:19:07.960Z,68.5
2022-10-12T06:21:56.540Z,69
2022-10-12T06:24:44.096Z,69.8
2022-10-12T06:27:32.187Z,69
2022-10-12T06:30:20.408Z,69.6
2022-10-12T06:33:08.191Z,69.8
2022-10-12T06:35:55.819Z,69.8
2022-10-12T06:38:43.485Z,70.4
2022-10-12T06:41:31.405Z,71.1
2022-10-12T06:44:20.255Z,70.7
2022-10-12T06:47:07.817Z,71.3
2022-10-12T06:49:55.340Z,70.9
2022-10-12T06:52:42.907Z,71.3
2022-10-12T06:55:32.236Z,71.4
2022-10-12T06:58:23.940Z,71.7
2022-10-12T07:01:11.532Z,71.5
2022-10-12T07:04:00.873Z,71.4
2022-10-12T07:06:48.901Z,71.4
2022-10-12T07:09:36.408Z,71.7
2022-10-12T07:12:24.012Z,71.3
2022-10-12T07:15:11.690Z,71.9
2022-10-12T07:17:59.396Z,71.5
2022-10-12T07:20:46.921Z,71.1
2022-10-12T07:23:34.708Z,71
2022-10-12T07:26:22.867Z,71.1
2022-10-12T07:29:10.732Z,71.1
2022-10-12T07:31:58.229Z,70.1
2022-10-12T07:34:46.085Z,69.5
2022-10-12T07:37:33.744Z,69.5
2022-10-12T07:40:21.499Z,69.3
2022-10-12T07:43:15.985Z,69
2022-10-12T07:46:04.539Z,69
2022-10-12T07:48:52.845Z,68.3
2022-10-12T07:51:40.430Z,67.5
2022-10-12T07:54:29.608Z,67.6
2022-10-12T07:57:18.347Z,67.7
2022-10-12T08:00:06.172Z,67.3
2022-10-12T08:02:54.740Z,66.9
2022-10-12T08:05:42.532Z,68
2022-10-12T08:08:30.616Z,66.1
2022-10-12T08:11:19.202Z,66.3
2022-10-12T08:14:08.192Z,65.4
2022-10-12T08:16:59.508Z,64.1
2022-10-12T08:19:47.332Z,64
2022-10-12T08:22:34.921Z,63.8
2022-10-12T08:25:22.557Z,63.9
2022-10-12T08:28:10.169Z,64.4
2022-10-12T08:30:58.064Z,64.7
2022-10-12T08:33:50.337Z,62.6
2022-10-12T08:36:38.049Z,63.7
2022-10-12T08:39:25.628Z,63.1
2022-10-12T08:42:13.448Z,62.3
2022-10-12T08:45:17.736Z,62.7
2022-10-12T08:48:18.848Z,61.3
2022-10-12T08:51:11.200Z,60.9
2022-10-12T08:54:03.194Z,60
2022-10-12T08:56:52.953Z,60.2
2022-10-12T08:59:42.237Z,60
2022-10-12T09:02:30.533Z,59.2
2022-10-12T09:05:34.759Z,61.6
2022-10-12T09:08:29.075Z,61.9
2022-10-12T09:11:29.802Z,62.5
2022-10-12T09:14:33.693Z,62.9
2022-10-12T09:17:24.186Z,63.1
2022-10-12T09:20:16.831Z,62.4
2022-10-12T09:23:07.509Z,60.2
2022-10-12T09:26:08.404Z,59.9
2022-10-12T09:29:01.502Z,56.7
2022-10-12T09:32:06.512Z,58.8
2022-10-12T09:35:13.588Z,58.4
2022-10-12T09:38:01.837Z,59.8
2022-10-12T09:40:51.437Z,61.1
2022-10-12T09:43:39.105Z,60.5
2022-10-12T09:46:26.924Z,60.9
2022-10-12T09:49:22.937Z,61.1
2022-10-12T09:52:25.498Z,58.2
2022-10-12T09:55:16.110Z,56.6
2022-10-12T09:58:10.782Z,57.7
2022-10-12T10:01:04.916Z,56.8
2022-10-12T10:04:10.629Z,57
2022-10-12T10:07:02.455Z,56.7
2022-10-12T10:10:06.473Z,56.5
2022-10-12T10:13:02.368Z,52.8
2022-10-12T10:15:51.293Z,57
2022-10-12T10:18:50.293Z,55.4
2022-10-12T10:21:43.123Z,54.6
2022-10-12T10:24:31.053Z,55.1
2022-10-12T10:27:20.304Z,54.1
2022-10-12T10:30:30.140Z,56.3
2022-10-12T10:33:20.995Z,55.9
2022-10-12T10:36:08.686Z,55.1
2022-10-12T10:39:04.778Z,56.2
2022-10-12T10:42:03.244Z,56.2
2022-10-12T10:44:56.187Z,56.9
2022-10-12T10:47:46.382Z,57.2
2022-10-12T10:50:34.706Z,58.5
2022-10-12T10:53:25.976Z,57.6
2022-10-12T10:56:18.456Z,57.6
2022-10-12T10:59:11.003Z,56.3
2022-10-12T11:02:05.170Z,53.8
2022-10-12T11:05:07.033Z,54.6
2022-10-12T11:08:02.996Z,53.7
2022-10-12T11:10:56.991Z,52.9
2022-10-12T11:13:49.009Z,54.6
2022-10-12T11:16:45.277Z,54.3
2022-10-12T11:19:39.385Z,53.9
2022-10-12T11:22:33.284Z,54.8
2022-10-12T11:25:32.149Z,54.5
2022-10-12T11:28:27.029Z,54
2022-10-12T11:31:18.108Z,53.4
2022-10-12T11:34:13.622Z,54.4
2022-10-12T11:37:19.275Z,54.5
2022-10-12T11:40:13.627Z,55.2
2022-10-12T11:43:06.840Z,55.5
2022-10-12T11:46:00.564Z,55.2
2022-10-12T11:48:52.916Z,55.8
2022-10-12T11:51:47.728Z,55.7
2022-10-12T11:54:38.004Z,56.1
2022-10-12T11:57:32.659Z,55.3
2022-10-12T12:00:23.541Z,54.9
2022-10-12T12:03:18.504Z,54.7
2022-10-12T12:06:14.609Z,52.9
2022-10-12T12:09:35.350Z,51.5
2022-10-12T12:12:26.630Z,50
2022-10-12T12:15:14.673Z,50.3
2022-10-12T12:18:07.499Z,48.9
2022-10-12T12:20:59.097Z,50.4
2022-10-12T12:23:50.941Z,50.3
2022-10-12T12:26:40.451Z,49.7
2022-10-12T12:29:33.293Z,49.6
2022-10-12T12:32:21.232Z,51.1
2022-10-12T12:35:11.776Z,52.2
2022-10-12T12:38:15.145Z,52.2
2022-10-12T12:41:11.787Z,52.2
2022-10-12T12:44:01.861Z,52.5
2022-10-12T12:46:50.762Z,50.6
2022-10-12T12:50:22.412Z,50.6
2022-10-12T12:53:20.150Z,49.8
2022-10-12T12:56:08.651Z,50.2
2022-10-12T12:59:05.529Z,50
2022-10-12T13:02:17.988Z,48.4
2022-10-12T13:05:27.565Z,48.2
2022-10-12T13:09:19.017Z,45.6
2022-10-12T13:12:52.440Z,45.8
2022-10-12T13:15:56.377Z,45.8
2022-10-12T13:19:01.434Z,46.5
2022-10-12T13:21:51.430Z,45.2
2022-10-12T13:24:41.603Z,46.2
2022-10-12T13:27:33.039Z,47.1
2022-10-12T13:30:30.341Z,47.4
2022-10-12T13:33:26.675Z,48.3
2022-10-12T13:36:23.546Z,48.8
2022-10-12T13:39:14.213Z,49.8
2022-10-12T13:42:03.980Z,50.3
2022-10-12T13:44:52.410Z,49.9
2022-10-12T13:47:40.089Z,48.9
2022-10-12T13:50:28.223Z,49.2
2022-10-12T13:53:17.455Z,47.6
2022-10-12T13:56:05.779Z,47
2022-10-12T13:58:58.526Z,46.5
2022-10-12T14:01:48.277Z,46.6
2022-10-12T14:04:40.247Z,46.6
2022-10-12T14:07:29.058Z,45.7
2022-10-12T14:10:21.039Z,45
2022-10-12T14:13:14.608Z,45.5
2022-10-12T14:16:10.308Z,45.4
2022-10-12T14:18:59.406Z,45.4
2022-10-12T14:22:03.925Z,45.1
2022-10-12T14:24:52.405Z,45
2022-10-12T14:27:55.701Z,45.4
2022-10-12T14:30:45.739Z,46.9
2022-10-12T14:33:37.755Z,47.1
2022-10-12T14:36:25.532Z,47.9
2022-10-12T14:39:13.805Z,48.3
2022-10-12T14:42:05.000Z,48.6
2022-10-12T14:45:05.604Z,48.9
2022-10-12T14:48:08.684Z,49.6
2022-10-12T14:51:02.477Z,50.7
2022-10-12T14:53:50.333Z,51.4
2022-10-12T14:56:45.624Z,51.9
2022-10-12T14:59:33.414Z,52.8
2022-10-12T15:02:21.384Z,53.7
2022-10-12T15:05:12.191Z,53.3
2022-10-12T15:08:02.713Z,54.8
2022-10-12T15:10:53.537Z,55.4
2022-10-12T15:13:41.217Z,55.9
2022-10-12T15:16:29.236Z,56.3
2022-10-12T15:19:18.741Z,56.7
2022-10-12T15:22:06.239Z,57.2
2022-10-12T15:24:59.379Z,57.6
2022-10-12T15:27:47.045Z,57.4
2022-10-12T15:30:36.041Z,58.2
2022-10-12T15:33:27.991Z,58.9
2022-10-12T15:36:16.225Z,58.5
2022-10-12T15:39:03.835Z,59.3
2022-10-12T15:41:51.452Z,59.5
2022-10-12T15:44:39.248Z,60.2
2022-10-12T15:47:26.917Z,60.2
2022-10-12T15:50:14.518Z,60.2
2022-10-12T15:53:03.919Z,61
2022-10-12T15:55:54.872Z,61.1
2022-10-12T15:58:42.857Z,61.1
2022-10-12T16:01:30.807Z,61.4
2022-10-12T16:04:21.227Z,61.5
2022-10-12T16:07:08.897Z,61.9
2022-10-12T16:09:56.465Z,61.8
2022-10-12T16:12:43.991Z,62.4
2022-10-12T16:15:33.652Z,62.1
2022-10-12T16:18:21.870Z,61.7
2022-10-12T16:21:09.468Z,61.2
2022-10-12T16:23:57.633Z,60.6
2022-10-12T16:26:45.260Z,60.8
2022-10-12T16:29:34.553Z,60.9
2022-10-12T16:32:22.131Z,60.9
2022-10-12T16:35:10.290Z,61.1
2022-10-12T16:37:58.737Z,60.9
2022-10-12T16:40:46.587Z,60.7
2022-10-12T16:43:34.446Z,60.6
2022-10-12T16:46:22.528Z,60.7
2022-10-12T16:49:10.179Z,60.4
2022-10-12T16:51:57.818Z,60.5
2022-10-12T16:54:45.409Z,60.3
2022-10-12T16:57:33.408Z,59.6
2022-10-12T17:00:21.951Z,59.8
2022-10-12T17:03:09.826Z,60.1
2022-10-12T17:05:58.701Z,60.7
2022-10-12T17:08:46.385Z,61.8
2022-10-12T17:11:34.317Z,61.8
2022-10-12T17:14:23.547Z,62.1
2022-10-12T17:17:11.130Z,62.3
2022-10-12T17:19:58.838Z,62.7
2022-10-12T17:22:46.465Z,62.7
2022-10-12T17:25:34.030Z,61.9
2022-10-12T17:28:21.835Z,61.9
2022-10-12T17:31:11.757Z,61.4
2022-10-12T17:33:59.559Z,61.4
2022-10-12T17:36:47.473Z,61.1
2022-10-12T17:39:36.294Z,61.4
2022-10-12T17:42:26.829Z,60.9
2022-10-12T17:45:14.472Z,61.1
2022-10-12T17:48:02.200Z,60.8
2022-10-12T17:50:50.489Z,60.3
2022-10-12T17:53:38.129Z,60.3
2022-10-12T17:56:27.081Z,60.8
2022-10-12T17:59:14.713Z,60.6
2022-10-12T18:02:06.877Z,59.9
2022-10-12T18:04:56.845Z,59.9
2022-10-12T18:07:44.428Z,60.2
2022-10-12T18:10:32.117Z,60.5
2022-10-12T18:13:24.056Z,60.4
2022-10-12T18:16:12.572Z,59.5
2022-10-12T18:19:02.673Z,60.6
2022-10-12T18:21:52.216Z,61
2022-10-12T18:24:39.804Z,61.6
2022-10-12T18:27:27.446Z,62.1
2022-10-12T18:30:14.960Z,62.3
2022-10-12T18:33:02.727Z,64.1
2022-10-12T18:35:50.451Z,63.5
2022-10-12T18:38:39.178Z,62.9
2022-10-12T18:41:27.009Z,62.9
2022-10-12T18:44:15.183Z,62.6
2022-10-12T18:47:05.701Z,62.2
2022-10-12T18:49:53.539Z,62
2022-10-12T18:52:41.056Z,61.3
2022-10-12T18:55:28.718Z,61.4
2022-10-12T18:58:17.139Z,61.6
2022-10-12T19:01:05.011Z,61.7
2022-10-12T19:03:55.068Z,62.4
2022-10-12T19:06:44.759Z,61.8
2022-10-12T19:09:32.743Z,62.1
2022-10-12T19:12:21.324Z,61.7
2022-10-12T19:15:08.932Z,61.7
2022-10-12T19:17:56.612Z,61.7
2022-10-12T19:20:45.143Z,61.6
2022-10-12T19:23:33.146Z,61.8
2022-10-12T19:26:21.087Z,61.6
2022-10-12T19:29:10.992Z,61.7
2022-10-12T19:31:59.387Z,62
2022-10-12T19:34:49.499Z,61.8
2022-10-12T19:37:37.207Z,61.7
2022-10-12T19:40:25.167Z,61.7
2022-10-12T19:43:12.815Z,61.6
2022-10-12T19:46:00.477Z,60.8
2022-10-12T19:48:48.935Z,61.1
2022-10-12T19:51:39.035Z,61.3
2022-10-12T19:54:27.573Z,61.2
2022-10-12T19:57:15.166Z,61.8
2022-10-12T20:00:02.939Z,61.1
2022-10-12T20:02:53.446Z,62.3
2022-10-12T20:05:41.237Z,61.7
2022-10-12T20:08:31.279Z,61.9
2022-10-12T20:11:24.543Z,61.7
2022-10-12T20:14:13.260Z,62.6
2022-10-12T20:17:06.412Z,62.2
2022-10-12T20:19:54.918Z,61.7
2022-10-12T20:22:42.457Z,62.3
2022-10-12T20:25:30.068Z,62.5
2022-10-12T20:28:17.847Z,61.8
2022-10-12T20:31:06.619Z,61.9
2022-10-12T20:33:54.977Z,62.2
2022-10-12T20:36:42.967Z,62.5
2022-10-12T20:39:32.475Z,62.9
2022-10-12T20:42:22.129Z,62.5
2022-10-12T20:45:10.246Z,62.8
2022-10-12T20:47:59.180Z,62.9
2022-10-12T20:50:47.144Z,63.3
2022-10-12T20:53:34.971Z,63
2022-10-12T20:56:22.950Z,63.5
2022-10-12T20:59:10.781Z,63.8
2022-10-12T21:01:58.437Z,64.5
2022-10-12T21:04:46.131Z,63.8
2022-10-12T21:07:34.936Z,63.1
2022-10-12T21:10:22.591Z,63.4
2022-10-12T21:13:10.225Z,63.3
2022-10-12T21:15:57.868Z,62.7
2022-10-12T21:18:45.490Z,63.5
2022-10-12T21:21:33.885Z,64
2022-10-12T21:24:21.750Z,63.9
2022-10-12T21:27:09.238Z,64.6
2022-10-12T21:29:56.830Z,64.5
2022-10-12T21:32:44.360Z,64.5
2022-10-12T21:35:32.138Z,64.2
2022-10-12T21:38:20.869Z,64.8
2022-10-12T21:41:08.613Z,64.4
2022-10-12T21:43:59.261Z,64.1
2022-10-12T21:46:46.958Z,64
2022-10-12T21:49:34.566Z,63.5
2022-10-12T21:52:22.111Z,64.2
2022-10-12T21:55:09.692Z,64.1
2022-10-12T21:57:57.396Z,64.5
2022-10-12T22:00:45.810Z,64.8
2022-10-12T22:03:34.609Z,63.9
2022-10-12T22:06:22.441Z,64.7
2022-10-12T22:09:11.942Z,64.8
2022-10-12T22:12:03.738Z,64.8
2022-10-12T22:14:51.705Z,64.7
2022-10-12T22:17:39.252Z,64.6
2022-10-12T22:20:26.833Z,65.1
2022-10-12T22:23:14.493Z,64.7
2022-10-12T22:26:02.116Z,64.7
2022-10-12T22:28:54.651Z,64.4
2022-10-12T22:31:42.551Z,65.2
2022-10-12T22:34:31.068Z,64.5
2022-10-12T22:37:19.507Z,64.6
2022-10-12T22:40:07.606Z,64.8
2022-10-12T22:42:56.009Z,65.3
2022-10-12T22:45:43.940Z,65.3
2022-10-12T22:48:31.471Z,65.2
2022-10-12T22:51:20.923Z,65.1
2022-10-12T22:54:14.731Z,65.4
2022-10-12T22:57:02.386Z,65.4
2022-10-12T22:59:50.024Z,65.6
2022-10-12T23:02:37.516Z,65.2
2022-10-12T23:05:25.122Z,65.3
2022-10-12T23:08:13.172Z,65.7
2022-10-12T23:11:01.099Z,64.7
2022-10-12T23:13:50.050Z,65.3
2022-10-12T23:16:38.174Z,65.2
2022-10-12T23:19:25.802Z,65.2
2022-10-12T23:22:13.562Z,66.3
2022-10-12T23:25:01.451Z,65.6
2022-10-12T23:27:50.242Z,65.5
2022-10-12T23:30:37.794Z,65.5
2022-10-12T23:33:25.262Z,65.4
2022-10-12T23:36:13.008Z,65.5
2022-10-12T23:39:02.633Z,65.5
2022-10-12T23:41:51.088Z,64.9
2022-10-12T23:44:38.518Z,64.6
2022-10-12T23:47:26.408Z,65.3
2022-10-12T23:50:13.938Z,66.2
2022-10-12T23:53:01.584Z,65.1
2022-10-12T23:55:49.308Z,65.9
2022-10-12T23:58:37.423Z,65.5
